createdAt,value
2018-07-17T00:02:17.486Z,27.53
2018-07-17T00:04:50.768Z,30.23
2018-07-17T00:07:23.793Z,26.73
2018-07-17T00:09:57.270Z,16.30
2018-07-17T00:12:30.389Z,19.40
2018-07-17T00:15:03.763Z,29.43
2018-07-17T00:17:37.349Z,29.53
2018-07-17T00:20:10.444Z,28.67
2018-07-17T00:22:43.639Z,32.27
2018-07-17T00:25:17.167Z,29.50
2018-07-17T00:27:50.361Z,24.40
2018-07-17T00:30:23.549Z,30.60
2018-07-17T00:32:56.688Z,37.63
2018-07-17T00:35:29.745Z,35.23
2018-07-17T00:38:02.956Z,42.80
2018-07-17T00:40:39.846Z,29.10
2018-07-17T00:43:13.000Z,28.70
2018-07-17T00:45:46.018Z,34.63
2018-07-17T00:48:19.812Z,28.07
2018-07-17T00:50:52.963Z,27.60
2018-07-17T00:53:28.871Z,28.23
2018-07-17T00:56:01.957Z,38.67
2018-07-17T00:58:35.487Z,38.27
2018-07-17T01:01:07.147Z,32.70
2018-07-17T01:03:47.274Z,32.97
2018-07-17T01:06:25.304Z,32.80
2018-07-17T01:09:02.999Z,39.17
2018-07-17T01:11:41.320Z,29.50
2018-07-17T01:14:33.965Z,28.07
2018-07-17T01:17:07.654Z,40.63
2018-07-17T01:19:43.262Z,43.90
2018-07-17T01:22:21.120Z,84.00
2018-07-17T01:24:54.369Z,49.83
2018-07-17T01:27:27.696Z,42.80
2018-07-17T01:30:01.190Z,33.37
2018-07-17T01:32:34.859Z,31.60
2018-07-17T01:35:08.815Z,28.10
2018-07-17T01:37:42.212Z,34.53
2018-07-17T01:40:15.714Z,31.20
2018-07-17T01:42:48.924Z,31.90
2018-07-17T01:45:22.291Z,27.07
2018-07-17T01:47:55.668Z,31.43
2018-07-17T01:50:29.195Z,28.60
2018-07-17T01:53:02.932Z,35.33
2018-07-17T01:55:36.637Z,33.27
2018-07-17T01:58:10.200Z,30.97
2018-07-17T02:00:44.267Z,26.53
2018-07-17T02:03:18.175Z,24.87
2018-07-17T02:05:52.895Z,26.87
2018-07-17T02:08:26.035Z,28.67
2018-07-17T02:10:59.196Z,32.00
2018-07-17T02:13:32.713Z,30.60
2018-07-17T02:16:05.925Z,31.93
2018-07-17T02:18:39.185Z,32.78
2018-07-17T02:21:12.540Z,33.93
2018-07-17T02:23:47.168Z,35.47
2018-07-17T02:26:20.476Z,40.33
2018-07-17T02:28:54.272Z,39.73
2018-07-17T02:31:27.718Z,42.90
2018-07-17T02:34:01.231Z,36.23
2018-07-17T02:36:34.321Z,37.83
2018-07-17T02:39:10.035Z,33.80
2018-07-17T02:41:43.116Z,33.60
2018-07-17T02:44:16.608Z,37.40
2018-07-17T02:46:56.827Z,34.00
2018-07-17T02:49:35.604Z,32.73
2018-07-17T02:52:16.934Z,33.17
2018-07-17T02:54:53.703Z,30.73
2018-07-17T02:57:32.060Z,38.10
2018-07-17T03:00:12.264Z,36.40
2018-07-17T03:02:54.092Z,28.37
2018-07-17T03:05:30.442Z,32.28
2018-07-17T03:08:06.766Z,32.77
2018-07-17T03:10:46.774Z,38.10
2018-07-17T03:13:23.817Z,29.90
2018-07-17T03:16:01.953Z,45.13
2018-07-17T03:18:45.140Z,40.67
2018-07-17T03:21:21.934Z,28.63
2018-07-17T03:24:03.725Z,35.63
2018-07-17T03:26:58.279Z,37.87
2018-07-17T03:29:38.193Z,37.87
2018-07-17T03:32:20.718Z,31.13
2018-07-17T03:35:02.662Z,27.77
2018-07-17T03:37:43.036Z,22.83
2018-07-17T03:40:24.353Z,24.33
2018-07-17T03:43:03.016Z,25.33
2018-07-17T03:45:47.337Z,29.07
2018-07-17T03:48:27.850Z,24.43
2018-07-17T03:51:09.558Z,26.67
2018-07-17T03:53:47.174Z,31.10
2018-07-17T03:56:27.375Z,25.53
2018-07-17T03:59:06.963Z,27.47
2018-07-17T04:01:46.741Z,28.60
2018-07-17T04:04:26.237Z,37.78
2018-07-17T04:07:04.407Z,36.57
2018-07-17T04:09:45.051Z,40.10
2018-07-17T04:12:27.888Z,33.27
2018-07-17T04:15:08.827Z,25.20
2018-07-17T04:17:47.865Z,32.63
2018-07-17T04:20:28.051Z,23.63
2018-07-17T04:23:09.267Z,29.03
2018-07-17T04:25:49.647Z,33.42
2018-07-17T04:28:31.914Z,33.57
2018-07-17T04:31:13.887Z,33.27
2018-07-17T04:33:51.016Z,28.30
2018-07-17T04:36:33.105Z,30.83
2018-07-17T04:39:06.555Z,30.93
2018-07-17T04:41:39.988Z,25.23
2018-07-17T04:44:13.235Z,23.83
2018-07-17T04:46:46.474Z,25.07
2018-07-17T04:49:19.895Z,29.83
2018-07-17T04:51:53.021Z,27.67
2018-07-17T04:54:26.236Z,30.00
2018-07-17T04:56:59.320Z,28.80
2018-07-17T04:59:32.408Z,33.10
2018-07-17T05:02:05.640Z,35.87
2018-07-17T05:04:38.676Z,34.47
2018-07-17T05:07:12.242Z,31.13
2018-07-17T05:09:45.240Z,29.47
2018-07-17T05:12:23.331Z,32.43
2018-07-17T05:14:56.444Z,34.57
2018-07-17T05:17:29.678Z,34.63
2018-07-17T05:20:02.739Z,31.27
2018-07-17T05:22:36.120Z,30.60
2018-07-17T05:25:10.267Z,35.73
2018-07-17T05:27:43.474Z,37.83
2018-07-17T05:30:16.816Z,38.33
2018-07-17T05:32:50.104Z,30.40
2018-07-17T05:35:23.373Z,32.30
2018-07-17T05:37:56.575Z,26.53
2018-07-17T05:40:29.613Z,29.73
2018-07-17T05:43:02.717Z,27.57
2018-07-17T05:45:35.998Z,26.17
2018-07-17T05:48:09.094Z,24.07
2018-07-17T05:50:42.521Z,24.93
2018-07-17T05:53:15.870Z,25.87
2018-07-17T05:55:48.955Z,36.50
2018-07-17T05:58:22.272Z,31.00
2018-07-17T06:00:55.485Z,31.97
2018-07-17T06:03:28.827Z,26.97
2018-07-17T06:06:02.053Z,30.47
2018-07-17T06:08:35.200Z,27.17
2018-07-17T06:11:08.232Z,25.33
2018-07-17T06:13:41.417Z,28.77
2018-07-17T06:16:14.680Z,30.90
2018-07-17T06:18:47.820Z,26.33
2018-07-17T06:21:21.010Z,26.50
2018-07-17T06:23:54.270Z,27.97
2018-07-17T06:26:27.663Z,30.70
2018-07-17T06:29:00.667Z,25.50
2018-07-17T06:31:34.034Z,26.30
2018-07-17T06:34:07.246Z,26.10
2018-07-17T06:36:40.489Z,22.77
2018-07-17T06:39:14.643Z,21.87
2018-07-17T06:41:47.913Z,20.43
2018-07-17T06:44:21.527Z,27.87
2018-07-17T06:46:54.787Z,21.27
2018-07-17T06:49:28.144Z,23.23
2018-07-17T06:52:01.306Z,24.70
2018-07-17T06:54:34.523Z,23.53
2018-07-17T06:57:08.188Z,30.17
2018-07-17T06:59:41.536Z,24.87
2018-07-17T07:02:14.884Z,24.70
2018-07-17T07:04:47.916Z,25.83
2018-07-17T07:07:21.150Z,28.20
2018-07-17T07:09:54.398Z,29.87
2018-07-17T07:12:27.508Z,24.07
2018-07-17T07:15:00.681Z,29.20
2018-07-17T07:17:34.080Z,30.30
2018-07-17T07:20:07.632Z,26.02
2018-07-17T07:22:40.731Z,27.00
2018-07-17T07:25:13.656Z,28.23
2018-07-17T07:27:46.804Z,25.97
2018-07-17T07:30:19.960Z,26.73
2018-07-17T07:32:53.257Z,28.77
2018-07-17T07:35:26.731Z,30.33
2018-07-17T07:38:00.015Z,28.40
2018-07-17T07:40:33.201Z,28.83
2018-07-17T07:43:06.293Z,24.97
2018-07-17T07:45:39.662Z,28.32
2018-07-17T07:48:13.149Z,25.30
2018-07-17T07:50:46.415Z,26.93
2018-07-17T07:53:19.976Z,29.13
2018-07-17T07:55:53.343Z,22.90
2018-07-17T07:58:26.498Z,25.27
2018-07-17T08:01:00.210Z,28.30
2018-07-17T08:03:33.643Z,28.40
2018-07-17T08:06:06.689Z,27.37
2018-07-17T08:08:39.885Z,25.03
2018-07-17T08:11:12.980Z,20.03
2018-07-17T08:13:46.121Z,23.23
2018-07-17T08:16:19.140Z,21.77
2018-07-17T08:18:52.866Z,21.97
2018-07-17T08:21:26.211Z,29.27
2018-07-17T08:23:59.264Z,25.15
2018-07-17T08:26:32.456Z,27.40
2018-07-17T08:29:05.401Z,30.40
2018-07-17T08:31:38.647Z,28.23
2018-07-17T08:34:11.758Z,21.93
2018-07-17T08:38:14.150Z,27.90
2018-07-17T08:40:58.857Z,24.07
2018-07-17T08:43:44.042Z,25.23
2018-07-17T08:46:17.738Z,28.47
2018-07-17T08:48:51.219Z,22.67
2018-07-17T08:51:26.192Z,22.97
2018-07-17T08:53:59.592Z,22.07
2018-07-17T08:56:32.805Z,26.90
2018-07-17T08:59:10.467Z,27.22
2018-07-17T09:01:43.647Z,26.53
2018-07-17T09:04:16.669Z,25.00
2018-07-17T09:06:49.781Z,22.43
2018-07-17T09:09:22.782Z,23.43
2018-07-17T09:11:56.040Z,26.30
2018-07-17T09:14:29.156Z,21.60
2018-07-17T09:17:02.272Z,25.00
2018-07-17T09:19:35.388Z,23.23
2018-07-17T09:22:08.652Z,24.30
2018-07-17T09:24:41.723Z,24.57
2018-07-17T09:27:17.075Z,23.83
2018-07-17T09:29:50.464Z,26.57
2018-07-17T09:32:23.686Z,27.43
2018-07-17T09:34:56.640Z,24.73
2018-07-17T09:37:30.465Z,28.50
2018-07-17T09:40:03.608Z,23.73
2018-07-17T09:42:36.510Z,26.70
2018-07-17T09:45:09.636Z,33.53
2018-07-17T09:47:42.829Z,24.37
2018-07-17T09:50:15.931Z,22.37
2018-07-17T09:52:49.083Z,27.58
2018-07-17T09:55:22.312Z,27.20
2018-07-17T09:57:55.370Z,23.70
2018-07-17T10:00:37.011Z,24.83
2018-07-17T10:03:10.151Z,25.43
2018-07-17T10:05:43.692Z,28.77
2018-07-17T10:08:16.659Z,26.70
2018-07-17T10:10:49.900Z,27.85
2018-07-17T10:13:23.211Z,22.73
2018-07-17T10:15:56.257Z,23.27
2018-07-17T10:18:29.586Z,30.93
2018-07-17T10:21:03.167Z,26.97
2018-07-17T10:23:36.495Z,28.40
2018-07-17T10:26:09.634Z,24.57
2018-07-17T10:28:42.728Z,25.67
2018-07-17T10:31:15.819Z,30.17
2018-07-17T10:34:02.251Z,27.27
2018-07-17T10:36:47.686Z,25.93
2018-07-17T10:39:34.169Z,29.23
2018-07-17T10:42:08.764Z,29.60
2018-07-17T10:44:42.647Z,34.55
2018-07-17T10:47:15.711Z,28.53
2018-07-17T10:49:48.889Z,31.87
2018-07-17T10:52:21.812Z,30.07
2018-07-17T10:54:54.911Z,27.37
2018-07-17T10:57:28.085Z,29.10
2018-07-17T11:00:01.187Z,35.43
2018-07-17T11:02:34.324Z,28.33
2018-07-17T11:05:07.556Z,30.57
2018-07-17T11:07:40.617Z,35.40
2018-07-17T11:10:13.750Z,28.75
2018-07-17T11:12:46.709Z,29.40
2018-07-17T11:15:19.875Z,28.43
2018-07-17T11:17:53.089Z,26.00
2018-07-17T11:20:26.205Z,26.93
2018-07-17T11:22:59.875Z,25.70
2018-07-17T11:25:33.039Z,31.53
2018-07-17T11:28:05.976Z,35.63
2018-07-17T11:30:39.160Z,37.40
2018-07-17T11:33:12.172Z,33.17
2018-07-17T11:35:56.313Z,34.90
2018-07-17T11:38:42.114Z,36.77
2018-07-17T11:41:24.645Z,29.17
2018-07-17T11:44:01.253Z,36.10
2018-07-17T11:46:38.552Z,35.83
2018-07-17T11:49:21.175Z,32.20
2018-07-17T11:52:06.558Z,29.63
2018-07-17T11:54:44.940Z,26.90
2018-07-17T11:57:23.427Z,25.10
2018-07-17T12:00:04.954Z,22.43
2018-07-17T12:02:53.631Z,29.30
2018-07-17T12:05:26.845Z,25.93
2018-07-17T12:08:00.081Z,28.90
2018-07-17T12:10:40.107Z,26.87
2018-07-17T12:13:19.930Z,27.90
2018-07-17T12:16:01.727Z,25.50
2018-07-17T12:18:38.854Z,28.17
2018-07-17T12:21:16.920Z,31.20
2018-07-17T12:23:57.902Z,23.60
2018-07-17T12:26:41.404Z,22.77
2018-07-17T12:29:22.839Z,25.50
2018-07-17T12:32:04.538Z,26.35
2018-07-17T12:35:00.195Z,34.50
2018-07-17T12:37:47.386Z,23.60
2018-07-17T12:40:37.291Z,35.13
2018-07-17T12:43:21.605Z,30.03
2018-07-17T12:45:59.181Z,25.43
2018-07-17T12:48:38.486Z,31.07
2018-07-17T12:51:16.677Z,28.07
2018-07-17T12:53:56.373Z,25.90
2018-07-17T12:59:22.638Z,26.07
2018-07-17T13:01:58.579Z,19.82
2018-07-17T13:04:39.067Z,22.30
2018-07-17T13:07:18.311Z,17.03
2018-07-17T13:09:57.456Z,22.80
2018-07-17T13:12:38.252Z,38.03
2018-07-17T13:15:19.997Z,23.90
2018-07-17T13:18:04.675Z,24.43
2018-07-17T13:20:49.135Z,22.27
2018-07-17T13:23:27.696Z,29.53
2018-07-17T13:26:11.508Z,20.17
2018-07-17T13:28:54.370Z,31.43
2018-07-17T13:31:37.208Z,20.83
2018-07-17T13:34:14.599Z,22.30
2018-07-17T13:36:58.819Z,19.57
2018-07-17T13:39:39.499Z,20.57
2018-07-17T13:42:24.437Z,22.60
2018-07-17T13:45:16.235Z,17.33
2018-07-17T13:47:56.193Z,21.42
2018-07-17T13:50:35.769Z,24.03
2018-07-17T13:53:16.326Z,21.17
2018-07-17T13:56:00.011Z,26.20
2018-07-17T13:58:43.659Z,27.77
2018-07-17T14:01:24.683Z,20.73
2018-07-17T14:04:03.213Z,38.97
2018-07-17T14:06:38.417Z,23.10
2018-07-17T14:09:14.039Z,17.93
2018-07-17T14:11:56.145Z,20.80
2018-07-17T14:14:36.173Z,23.07
2018-07-17T14:17:17.143Z,34.23
2018-07-17T14:19:58.379Z,22.63
2018-07-17T14:22:38.836Z,18.03
2018-07-17T14:25:20.143Z,27.80
2018-07-17T14:27:58.568Z,28.40
2018-07-17T14:30:39.621Z,28.23
2018-07-17T14:33:19.112Z,25.03
2018-07-17T14:35:58.364Z,19.37
2018-07-17T14:38:38.150Z,18.50
2018-07-17T14:41:19.964Z,18.73
2018-07-17T14:44:01.917Z,22.37
2018-07-17T14:46:40.326Z,23.43
2018-07-17T14:49:22.273Z,34.67
2018-07-17T14:52:01.826Z,15.37
2018-07-17T14:54:38.222Z,26.93
2018-07-17T14:57:16.358Z,39.50
2018-07-17T14:59:55.632Z,21.73
2018-07-17T15:02:44.463Z,21.60
2018-07-17T15:05:24.068Z,27.40
2018-07-17T15:08:00.642Z,25.08
2018-07-17T15:10:41.272Z,36.27
2018-07-17T15:13:19.185Z,28.80
2018-07-17T15:15:57.962Z,19.60
2018-07-17T15:18:35.946Z,24.20
2018-07-17T15:21:09.569Z,22.30
2018-07-17T15:23:42.832Z,28.30
2018-07-17T15:26:16.665Z,26.57
2018-07-17T15:28:50.778Z,22.63
2018-07-17T15:31:24.376Z,25.57
2018-07-17T15:33:59.305Z,21.13
2018-07-17T15:39:15.922Z,17.13
2018-07-17T15:41:50.477Z,19.30
2018-07-17T15:44:23.790Z,19.83
2018-07-17T15:46:57.168Z,21.07
2018-07-17T15:49:30.906Z,20.85
2018-07-17T15:52:04.219Z,17.83
2018-07-17T15:54:38.273Z,21.53
2018-07-17T15:57:12.640Z,21.33
2018-07-17T15:59:47.462Z,23.10
2018-07-17T16:02:21.227Z,19.93
2018-07-17T16:05:01.593Z,22.47
2018-07-17T16:07:36.640Z,18.30
2018-07-17T16:10:14.922Z,20.83
2018-07-17T16:12:49.044Z,15.20
2018-07-17T16:15:24.846Z,16.77
2018-07-17T16:18:00.083Z,20.57
2018-07-17T16:20:35.514Z,25.33
2018-07-17T16:23:17.362Z,13.33
2018-07-17T16:25:54.087Z,18.93
2018-07-17T16:28:32.386Z,20.33
2018-07-17T16:31:08.838Z,17.30
2018-07-17T16:33:42.252Z,18.43
2018-07-17T16:36:18.893Z,18.07
2018-07-17T16:38:54.112Z,16.90
2018-07-17T16:41:30.862Z,14.50
2018-07-17T16:44:08.354Z,16.10
2018-07-17T16:46:44.283Z,14.15
2018-07-17T16:49:19.178Z,19.13
2018-07-17T16:51:58.461Z,13.97
2018-07-17T16:54:38.997Z,15.67
2018-07-17T16:57:15.153Z,19.55
2018-07-17T16:59:50.153Z,17.43
2018-07-17T17:02:33.052Z,17.90
2018-07-17T17:05:08.280Z,20.33
2018-07-17T17:07:45.356Z,19.83
2018-07-17T17:10:18.512Z,13.30
2018-07-17T17:12:52.174Z,18.07
2018-07-17T17:15:32.658Z,11.63
2018-07-17T17:18:07.276Z,13.73
2018-07-17T17:20:40.622Z,20.83
2018-07-17T17:23:14.288Z,22.77
2018-07-17T17:26:54.173Z,24.67
2018-07-17T17:29:28.479Z,23.00
2018-07-17T17:32:03.747Z,18.33
2018-07-17T17:34:41.532Z,15.10
2018-07-17T17:37:18.571Z,22.20
2018-07-17T17:39:53.674Z,22.73
2018-07-17T17:42:28.940Z,16.02
2018-07-17T17:45:08.061Z,20.90
2018-07-17T17:47:42.163Z,24.65
2018-07-17T17:50:16.201Z,24.45
2018-07-17T17:52:49.276Z,18.10
2018-07-17T17:55:22.568Z,16.17
2018-07-17T18:00:34.930Z,19.15
2018-07-17T18:03:17.704Z,21.82
2018-07-17T18:05:59.069Z,23.40
2018-07-17T18:08:32.384Z,20.08
2018-07-17T18:11:06.510Z,17.50
2018-07-17T18:13:47.026Z,15.13
2018-07-17T18:16:20.892Z,15.75
2018-07-17T18:18:55.743Z,17.48
2018-07-17T18:21:29.236Z,19.40
2018-07-17T18:24:02.985Z,21.37
2018-07-17T18:26:36.465Z,16.23
2018-07-17T18:29:10.828Z,18.07
2018-07-17T18:31:44.631Z,26.37
2018-07-17T18:34:18.958Z,12.23
2018-07-17T18:36:52.837Z,13.78
2018-07-17T18:39:26.387Z,15.20
2018-07-17T18:42:00.809Z,18.77
2018-07-17T18:44:39.284Z,21.80
2018-07-17T18:47:15.034Z,13.53
2018-07-17T18:50:11.997Z,19.73
2018-07-17T18:52:25.446Z,24.83
2018-07-17T18:54:59.204Z,20.13
2018-07-17T18:57:32.832Z,17.57
2018-07-17T19:00:13.373Z,17.13
2018-07-17T19:02:55.849Z,20.70
2018-07-17T19:05:35.990Z,19.83
2018-07-17T19:08:16.766Z,14.33
2018-07-17T19:10:53.264Z,16.67
2018-07-17T19:13:36.154Z,21.73
2018-07-17T19:16:18.904Z,16.97
2018-07-17T19:19:03.990Z,17.50
2018-07-17T19:22:44.010Z,15.20
2018-07-17T19:25:20.513Z,18.97
2018-07-17T19:28:00.137Z,18.23
2018-07-17T19:30:49.176Z,13.18
2018-07-17T19:33:37.950Z,15.50
2018-07-17T19:36:17.901Z,14.63
2018-07-17T19:38:56.122Z,17.20
2018-07-17T19:41:38.918Z,17.02
2018-07-17T19:44:14.118Z,20.68
2018-07-17T19:46:49.373Z,18.32
2018-07-17T19:49:30.289Z,14.07
2018-07-17T19:52:04.583Z,16.73
2018-07-17T19:54:38.056Z,15.00
2018-07-17T19:57:18.752Z,14.83
2018-07-17T19:59:53.798Z,14.47
2018-07-17T20:02:28.351Z,15.57
2018-07-17T20:05:02.953Z,14.93
2018-07-17T20:07:36.851Z,16.33
2018-07-17T20:12:53.806Z,16.95
2018-07-17T20:15:31.670Z,17.67
2018-07-17T20:18:04.815Z,16.27
2018-07-17T20:20:40.935Z,21.40
2018-07-17T20:23:24.975Z,23.13
2018-07-17T20:25:59.988Z,16.80
2018-07-17T20:28:33.398Z,14.50
2018-07-17T20:31:13.345Z,19.77
2018-07-17T20:33:48.260Z,21.77
2018-07-17T20:36:25.994Z,16.90
2018-07-17T20:39:07.382Z,17.10
2018-07-17T20:41:46.727Z,15.17
2018-07-17T20:44:30.190Z,20.07
2018-07-17T20:47:06.797Z,20.40
2018-07-17T20:49:48.299Z,20.15
2018-07-17T20:52:21.513Z,20.82
2018-07-17T20:54:55.152Z,16.40
2018-07-17T20:57:31.189Z,16.40
2018-07-17T21:00:07.843Z,19.17
2018-07-17T21:02:56.350Z,15.23
2018-07-17T21:05:29.663Z,17.27
2018-07-17T21:08:05.724Z,21.20
2018-07-17T21:10:41.201Z,18.48
2018-07-17T21:13:14.802Z,13.93
2018-07-17T21:15:52.628Z,17.90
2018-07-17T21:18:34.526Z,20.82
2018-07-17T21:24:07.442Z,15.83
2018-07-17T21:26:41.982Z,16.03
2018-07-17T21:29:16.205Z,13.33
2018-07-17T21:31:49.820Z,15.17
2018-07-17T21:34:23.440Z,18.10
2018-07-17T21:36:57.105Z,15.93
2018-07-17T21:39:56.815Z,18.43
2018-07-17T21:42:31.477Z,20.50
2018-07-17T21:45:13.417Z,17.33
2018-07-17T21:47:46.522Z,15.55
2018-07-17T21:50:20.036Z,22.27
2018-07-17T21:52:54.733Z,15.03
2018-07-17T21:55:29.921Z,11.77
2018-07-17T21:58:03.272Z,13.00
2018-07-17T22:00:36.700Z,18.10
2018-07-17T22:03:10.066Z,17.87
2018-07-17T22:05:43.364Z,17.53
2018-07-17T22:08:16.733Z,18.75
2018-07-17T22:10:49.950Z,20.27
2018-07-17T22:13:23.277Z,17.87
2018-07-17T22:15:56.458Z,21.63
2018-07-17T22:18:29.685Z,17.97
2018-07-17T22:21:04.748Z,22.20
2018-07-17T22:23:37.817Z,20.77
2018-07-17T22:26:11.948Z,22.60
2018-07-17T22:28:45.221Z,12.33
2018-07-17T22:31:18.804Z,17.70
2018-07-17T22:33:52.378Z,16.90
2018-07-17T22:36:25.615Z,20.30
2018-07-17T22:38:59.174Z,18.07
2018-07-17T22:41:34.096Z,18.03
2018-07-17T22:44:07.843Z,15.57
2018-07-17T22:46:41.328Z,18.97
2018-07-17T22:49:22.181Z,22.13
2018-07-17T22:51:56.766Z,18.73
2018-07-17T22:54:29.959Z,22.67
2018-07-17T22:57:09.962Z,24.13
2018-07-17T22:59:43.122Z,22.87
2018-07-17T23:02:16.292Z,19.53
2018-07-17T23:04:49.581Z,28.87
2018-07-17T23:07:23.873Z,17.97
2018-07-17T23:09:57.175Z,19.30
2018-07-17T23:12:30.320Z,22.48
2018-07-17T23:15:12.476Z,19.63
2018-07-17T23:17:56.749Z,17.30
2018-07-17T23:20:37.125Z,14.00
2018-07-17T23:23:10.953Z,15.90
2018-07-17T23:25:44.275Z,22.70
2018-07-17T23:28:18.549Z,16.73
2018-07-17T23:30:51.897Z,21.37
2018-07-17T23:33:25.097Z,22.07
2018-07-17T23:35:58.213Z,29.03
2018-07-17T23:38:31.035Z,23.50
2018-07-17T23:41:04.267Z,23.77
2018-07-17T23:43:37.601Z,21.33
2018-07-17T23:46:10.738Z,25.67
2018-07-17T23:48:49.356Z,23.50
2018-07-17T23:51:22.977Z,30.33
2018-07-17T23:53:57.138Z,31.17
2018-07-17T23:56:30.661Z,19.47
2018-07-17T23:59:04.174Z,18.37
